createdAt,value
2023-02-12T00:00:53.157Z,5.00
2023-02-12T00:03:20.346Z,5.00
2023-02-12T00:05:47.503Z,4.90
2023-02-12T00:08:16.162Z,4.90
2023-02-12T00:10:44.125Z,4.90
2023-02-12T00:13:12.148Z,4.90
2023-02-12T00:15:43.829Z,4.90
2023-02-12T00:18:11.341Z,4.90
2023-02-12T00:20:39.179Z,4.90
2023-02-12T00:23:06.791Z,5.00
2023-02-12T00:25:34.874Z,5.00
2023-02-12T00:28:02.477Z,5.10
2023-02-12T00:30:30.093Z,5.10
2023-02-12T00:32:57.283Z,5.10
2023-02-12T00:35:24.479Z,5.10
2023-02-12T00:37:51.642Z,5.10
2023-02-12T00:40:19.662Z,5.10
2023-02-12T00:42:46.854Z,5.20
2023-02-12T00:45:14.118Z,5.20
2023-02-12T00:47:41.559Z,5.20
2023-02-12T00:50:09.128Z,5.20
2023-02-12T00:52:36.338Z,5.20
2023-02-12T00:55:04.165Z,5.20
2023-02-12T00:57:33.266Z,5.20
2023-02-12T01:00:00.533Z,5.10
2023-02-12T01:02:27.773Z,5.10
2023-02-12T01:04:55.008Z,5.10
2023-02-12T01:07:24.979Z,5.20
2023-02-12T01:09:52.143Z,5.30
2023-02-12T01:12:19.332Z,5.30
2023-02-12T01:14:47.290Z,5.30
2023-02-12T01:17:14.502Z,5.30
2023-02-12T01:19:44.821Z,5.20
2023-02-12T01:22:12.022Z,5.30
2023-02-12T01:24:39.210Z,5.30
2023-02-12T01:27:06.368Z,5.20
2023-02-12T01:29:33.554Z,5.20
2023-02-12T01:32:01.606Z,5.20
2023-02-12T01:34:29.238Z,5.30
2023-02-12T01:36:56.456Z,5.30
2023-02-12T01:39:23.634Z,5.30
2023-02-12T01:41:50.772Z,5.30
2023-02-12T01:44:19.544Z,5.30
2023-02-12T01:46:49.156Z,5.30
2023-02-12T01:49:36.858Z,5.30
2023-02-12T01:52:22.252Z,5.30
2023-02-12T01:54:52.167Z,5.30
2023-02-12T01:57:20.362Z,5.30
2023-02-12T01:59:52.468Z,5.30
2023-02-12T02:02:20.440Z,5.30
2023-02-12T02:04:53.764Z,5.20
2023-02-12T02:07:20.991Z,5.10
2023-02-12T02:09:48.709Z,5.00
2023-02-12T02:12:34.301Z,4.90
2023-02-12T02:17:51.660Z,4.80
2023-02-12T02:20:39.711Z,4.70
2023-02-12T02:23:15.672Z,4.70
2023-02-12T02:26:05.320Z,4.70
2023-02-12T02:28:37.913Z,4.60
2023-02-12T02:31:14.863Z,4.60
2023-02-12T02:33:56.904Z,4.60
2023-02-12T02:36:30.224Z,4.60
2023-02-12T02:39:05.091Z,4.60
2023-02-12T02:41:36.129Z,4.50
2023-02-12T02:44:10.235Z,4.50
2023-02-12T02:46:51.607Z,4.50
2023-02-12T02:49:38.141Z,4.50
2023-02-12T02:52:10.694Z,4.50
2023-02-12T02:54:42.451Z,4.50
2023-02-12T02:57:15.300Z,4.50
2023-02-12T02:59:52.272Z,4.50
2023-02-12T03:02:31.215Z,4.40
2023-02-12T03:05:06.594Z,4.40
2023-02-12T03:07:56.184Z,4.40
2023-02-12T03:10:29.588Z,4.30
2023-02-12T03:13:11.145Z,4.30
2023-02-12T03:16:03.287Z,4.30
2023-02-12T03:18:41.410Z,4.40
2023-02-12T03:21:15.098Z,4.40
2023-02-12T03:23:46.606Z,4.40
2023-02-12T03:26:22.028Z,4.50
2023-02-12T03:28:49.400Z,4.60
2023-02-12T03:31:29.372Z,4.60
2023-02-12T03:34:12.085Z,4.60
2023-02-12T03:36:52.523Z,4.50
2023-02-12T03:39:23.771Z,4.50
2023-02-12T03:42:12.342Z,4.50
2023-02-12T03:45:02.269Z,4.60
2023-02-12T03:47:29.436Z,4.60
2023-02-12T03:50:09.825Z,4.60
2023-02-12T03:52:37.259Z,4.60
2023-02-12T03:55:05.398Z,4.60
2023-02-12T03:57:38.261Z,4.60
2023-02-12T04:00:09.897Z,4.60
2023-02-12T04:02:43.334Z,4.60
2023-02-12T04:05:26.439Z,4.60
2023-02-12T04:07:56.506Z,4.70
2023-02-12T04:10:47.637Z,4.60
2023-02-12T04:13:49.911Z,4.60
2023-02-12T04:16:17.301Z,4.60
2023-02-12T04:18:49.346Z,4.50
2023-02-12T04:21:44.749Z,4.50
2023-02-12T04:24:20.485Z,4.50
2023-02-12T04:27:25.703Z,4.50
2023-02-12T04:30:00.161Z,4.50
2023-02-12T04:32:47.880Z,4.50
2023-02-12T04:35:32.170Z,4.40
2023-02-12T04:38:11.302Z,4.40
2023-02-12T04:40:41.149Z,4.40
2023-02-12T04:43:09.213Z,4.40
2023-02-12T04:45:38.226Z,4.40
2023-02-12T04:48:06.503Z,4.30
2023-02-12T04:50:41.981Z,4.30
2023-02-12T04:53:09.594Z,4.30
2023-02-12T04:55:37.110Z,4.30
2023-02-12T04:58:05.048Z,4.20
2023-02-12T05:00:32.343Z,4.20
2023-02-12T05:02:59.546Z,4.20
2023-02-12T05:05:27.337Z,4.30
2023-02-12T05:07:54.578Z,4.20
2023-02-12T05:10:21.802Z,4.20
2023-02-12T05:12:52.331Z,4.20
2023-02-12T05:15:19.802Z,4.20
2023-02-12T05:17:47.160Z,4.30
2023-02-12T05:20:14.480Z,4.30
2023-02-12T05:22:41.745Z,4.30
2023-02-12T05:25:08.931Z,4.30
2023-02-12T05:27:36.083Z,4.30
2023-02-12T05:30:03.708Z,4.30
2023-02-12T05:32:30.894Z,4.30
2023-02-12T05:34:58.058Z,4.30
2023-02-12T05:37:25.261Z,4.40
2023-02-12T05:39:53.756Z,4.40
2023-02-12T05:42:21.016Z,4.30
2023-02-12T05:44:48.163Z,4.30
2023-02-12T05:47:15.368Z,4.30
2023-02-12T05:49:42.811Z,4.30
2023-02-12T05:52:09.999Z,4.30
2023-02-12T05:54:37.148Z,4.30
2023-02-12T05:57:04.330Z,4.30
2023-02-12T05:59:31.990Z,4.30
2023-02-12T06:01:59.231Z,4.20
2023-02-12T06:04:28.794Z,4.20
2023-02-12T06:06:56.445Z,4.20
2023-02-12T06:09:24.036Z,4.20
2023-02-12T06:11:51.425Z,4.20
2023-02-12T06:14:19.990Z,4.30
2023-02-12T06:16:49.029Z,4.30
2023-02-12T06:19:16.977Z,4.30
2023-02-12T06:21:44.626Z,4.30
2023-02-12T06:24:16.581Z,4.30
2023-02-12T06:26:44.522Z,4.40
2023-02-12T06:29:13.554Z,4.40
2023-02-12T06:31:40.998Z,4.40
2023-02-12T06:34:10.439Z,4.40
2023-02-12T06:36:40.120Z,4.30
2023-02-12T06:39:07.432Z,4.30
2023-02-12T06:41:34.834Z,4.30
2023-02-12T06:44:02.003Z,4.30
2023-02-12T06:46:29.322Z,4.30
2023-02-12T06:48:58.438Z,4.30
2023-02-12T06:51:28.004Z,4.30
2023-02-12T06:53:56.291Z,4.30
2023-02-12T06:56:26.669Z,4.30
2023-02-12T06:58:59.431Z,4.30
2023-02-12T07:01:28.863Z,4.30
2023-02-12T07:03:59.177Z,4.30
2023-02-12T07:06:27.776Z,4.40
2023-02-12T07:08:55.988Z,4.40
2023-02-12T07:11:25.142Z,4.40
2023-02-12T07:13:52.433Z,4.40
2023-02-12T07:16:20.043Z,4.50
2023-02-12T07:18:47.820Z,4.50
2023-02-12T07:21:16.078Z,4.50
2023-02-12T07:23:51.415Z,4.60
2023-02-12T07:26:20.499Z,4.70
2023-02-12T07:28:47.850Z,4.80
2023-02-12T07:31:18.062Z,4.80
2023-02-12T07:33:46.325Z,4.90
2023-02-12T07:36:16.090Z,4.90
2023-02-12T07:38:43.408Z,4.80
2023-02-12T07:41:14.553Z,4.90
2023-02-12T07:43:43.384Z,5.00
2023-02-12T07:46:38.356Z,5.00
2023-02-12T07:49:07.425Z,5.10
2023-02-12T07:51:35.421Z,5.20
2023-02-12T07:54:03.443Z,5.30
2023-02-12T07:56:35.056Z,5.20
2023-02-12T07:59:05.794Z,5.20
2023-02-12T08:01:41.216Z,5.30
2023-02-12T08:04:10.866Z,5.30
2023-02-12T08:06:41.142Z,5.40
2023-02-12T08:09:11.505Z,5.40
2023-02-12T08:11:39.483Z,5.50
2023-02-12T08:14:07.175Z,5.50
2023-02-12T08:16:39.352Z,5.50
2023-02-12T08:19:17.596Z,5.50
2023-02-12T08:21:50.397Z,5.50
2023-02-12T08:24:17.704Z,5.50
2023-02-12T08:26:45.173Z,5.60
2023-02-12T08:29:15.431Z,5.60
2023-02-12T08:31:44.718Z,5.70
2023-02-12T08:34:21.306Z,5.70
2023-02-12T08:36:50.418Z,5.70
2023-02-12T08:39:18.472Z,5.70
2023-02-12T08:41:46.677Z,5.80
2023-02-12T08:44:14.632Z,5.90
2023-02-12T08:46:48.041Z,5.90
2023-02-12T08:49:24.648Z,5.90
2023-02-12T08:51:54.512Z,6.00
2023-02-12T08:54:24.807Z,6.00
2023-02-12T08:56:56.608Z,6.00
2023-02-12T08:59:24.286Z,6.00
2023-02-12T09:01:52.598Z,6.10
2023-02-12T09:04:22.771Z,6.10
2023-02-12T09:06:50.797Z,6.20
2023-02-12T09:09:19.635Z,6.30
2023-02-12T09:11:47.278Z,6.40
2023-02-12T09:14:16.303Z,6.50
2023-02-12T09:16:43.653Z,6.60
2023-02-12T09:19:14.055Z,6.70
2023-02-12T09:21:41.947Z,6.80
2023-02-12T09:24:09.705Z,6.90
2023-02-12T09:26:37.196Z,6.90
2023-02-12T09:29:05.168Z,7.00
2023-02-12T09:31:33.677Z,7.10
2023-02-12T09:34:06.183Z,7.20
2023-02-12T09:36:33.773Z,7.30
2023-02-12T09:39:01.036Z,7.20
2023-02-12T09:42:01.228Z,7.30
2023-02-12T09:45:06.383Z,7.40
2023-02-12T09:47:51.264Z,7.50
2023-02-12T09:50:37.457Z,7.50
2023-02-12T09:53:05.554Z,7.60
2023-02-12T09:55:34.468Z,7.70
2023-02-12T09:58:05.278Z,7.80
2023-02-12T10:00:32.772Z,7.90
2023-02-12T10:03:05.825Z,8.00
2023-02-12T10:05:41.036Z,8.10
2023-02-12T10:08:43.586Z,8.10
2023-02-12T10:11:48.381Z,8.10
2023-02-12T10:14:23.798Z,8.20
2023-02-12T10:17:21.573Z,8.20
2023-02-12T10:20:04.860Z,8.20
2023-02-12T10:22:56.063Z,8.20
2023-02-12T10:25:40.830Z,8.30
2023-02-12T10:28:13.329Z,8.30
2023-02-12T10:30:49.009Z,8.40
2023-02-12T10:33:36.441Z,8.50
2023-02-12T10:36:13.413Z,8.50
2023-02-12T10:38:46.953Z,8.50
2023-02-12T10:41:16.320Z,8.50
2023-02-12T10:43:43.803Z,8.50
2023-02-12T10:46:17.942Z,8.70
2023-02-12T10:48:49.499Z,8.80
2023-02-12T10:51:31.813Z,8.80
2023-02-12T10:54:31.177Z,9.00
2023-02-12T10:56:59.940Z,8.90
2023-02-12T10:59:28.893Z,8.90
2023-02-12T11:01:56.119Z,8.90
2023-02-12T11:04:23.543Z,9.00
2023-02-12T11:07:17.278Z,9.00
2023-02-12T11:09:49.801Z,9.00
2023-02-12T11:12:48.162Z,9.00
2023-02-12T11:15:22.640Z,8.90
2023-02-12T11:18:05.675Z,8.90
2023-02-12T11:20:50.094Z,9.00
2023-02-12T11:23:27.737Z,9.00
2023-02-12T11:26:02.277Z,9.00
2023-02-12T11:28:31.390Z,8.90
2023-02-12T11:31:22.974Z,9.00
2023-02-12T11:34:15.548Z,9.20
2023-02-12T11:36:51.956Z,9.40
2023-02-12T11:39:37.976Z,9.60
2023-02-12T11:42:17.068Z,9.60
2023-02-12T11:44:53.370Z,9.50
2023-02-12T11:47:26.668Z,9.40
2023-02-12T11:49:58.923Z,9.00
2023-02-12T11:52:29.825Z,8.80
2023-02-12T11:55:07.084Z,8.70
2023-02-12T11:57:43.369Z,8.60
2023-02-12T12:00:24.719Z,8.60
2023-02-12T12:03:25.197Z,8.60
2023-02-12T12:06:01.037Z,8.70
2023-02-12T12:08:41.758Z,8.70
2023-02-12T12:11:17.921Z,8.80
2023-02-12T12:13:53.813Z,8.90
2023-02-12T12:16:54.705Z,9.00
2023-02-12T12:19:57.273Z,9.00
2023-02-12T12:22:42.729Z,8.90
2023-02-12T12:25:19.121Z,8.80
2023-02-12T12:28:04.063Z,8.80
2023-02-12T12:30:56.967Z,8.70
2023-02-12T12:33:38.983Z,8.80
2023-02-12T12:36:18.492Z,8.80
2023-02-12T12:38:56.581Z,8.80
2023-02-12T12:41:48.004Z,8.90
2023-02-12T12:44:50.181Z,8.90
2023-02-12T12:47:20.194Z,9.00
2023-02-12T12:49:50.373Z,9.10
2023-02-12T12:52:41.741Z,9.30
2023-02-12T12:55:36.556Z,9.30
2023-02-12T12:58:23.986Z,9.20
2023-02-12T13:01:24.879Z,9.20
2023-02-12T13:04:09.095Z,9.20
2023-02-12T13:06:59.586Z,9.30
2023-02-12T13:10:01.751Z,9.30
2023-02-12T13:12:53.183Z,9.40
2023-02-12T13:15:38.427Z,9.60
2023-02-12T13:18:05.633Z,9.70
2023-02-12T13:21:05.753Z,9.70
2023-02-12T13:23:57.166Z,9.70
2023-02-12T13:26:37.201Z,9.60
2023-02-12T13:29:41.342Z,9.60
2023-02-12T13:32:45.395Z,9.40
2023-02-12T13:35:20.575Z,9.40
2023-02-12T13:37:58.932Z,9.30
2023-02-12T13:40:30.658Z,9.00
2023-02-12T13:43:22.766Z,8.90
2023-02-12T13:46:08.736Z,8.90
2023-02-12T13:48:54.110Z,8.90
2023-02-12T13:51:41.650Z,8.90
2023-02-12T13:54:16.512Z,9.00
2023-02-12T13:56:51.682Z,9.10
2023-02-12T13:59:34.126Z,9.00
2023-02-12T14:02:33.410Z,8.80
2023-02-12T14:05:20.914Z,8.80
2023-02-12T14:07:52.467Z,8.80
2023-02-12T14:10:21.324Z,8.80
2023-02-12T14:12:49.124Z,8.80
2023-02-12T14:15:33.794Z,8.90
2023-02-12T14:18:08.015Z,8.80
2023-02-12T14:20:40.674Z,8.80
2023-02-12T14:23:27.056Z,8.70
2023-02-12T14:26:16.280Z,8.70
2023-02-12T14:29:04.074Z,8.60
2023-02-12T14:31:36.956Z,8.70
2023-02-12T14:34:11.175Z,8.70
2023-02-12T14:36:43.738Z,8.70
2023-02-12T14:39:19.791Z,8.70
2023-02-12T14:41:47.666Z,8.60
2023-02-12T14:44:17.896Z,8.60
2023-02-12T14:46:48.669Z,8.60
2023-02-12T14:49:35.495Z,8.50
2023-02-12T14:52:15.134Z,8.40
2023-02-12T14:54:57.598Z,8.50
2023-02-12T14:57:34.970Z,8.40
2023-02-12T15:00:17.037Z,8.20
2023-02-12T15:03:25.039Z,8.20
2023-02-12T15:06:04.465Z,8.30
2023-02-12T15:08:48.770Z,8.30
2023-02-12T15:11:47.023Z,8.30
2023-02-12T15:14:20.022Z,8.10
2023-02-12T15:17:03.609Z,8.10
2023-02-12T15:19:47.092Z,8.10
2023-02-12T15:22:29.580Z,8.00
2023-02-12T15:25:26.686Z,8.00
2023-02-12T15:27:57.119Z,7.90
2023-02-12T15:30:27.870Z,7.90
2023-02-12T15:33:02.597Z,7.80
2023-02-12T15:35:33.324Z,7.80
2023-02-12T15:38:01.773Z,7.70
2023-02-12T15:40:31.273Z,7.60
2023-02-12T15:43:02.752Z,7.50
2023-02-12T15:45:35.316Z,7.50
2023-02-12T15:48:17.709Z,7.40
2023-02-12T15:50:49.983Z,7.30
2023-02-12T15:53:17.649Z,7.30
2023-02-12T15:55:47.528Z,7.20
2023-02-12T15:58:41.830Z,7.10
2023-02-12T16:01:25.194Z,7.10
2023-02-12T16:04:04.525Z,7.10
2023-02-12T16:06:34.405Z,7.00
2023-02-12T16:09:07.249Z,6.90
2023-02-12T16:11:35.429Z,6.90
2023-02-12T16:14:17.555Z,6.80
2023-02-12T16:16:49.225Z,6.70
2023-02-12T16:19:20.979Z,6.70
2023-02-12T16:22:10.739Z,6.60
2023-02-12T16:24:43.542Z,6.60
2023-02-12T16:27:16.446Z,6.40
2023-02-12T16:29:52.868Z,6.40
2023-02-12T16:32:37.100Z,6.40
2023-02-12T16:35:22.045Z,6.40
2023-02-12T16:38:27.334Z,6.30
2023-02-12T16:41:14.739Z,6.20
2023-02-12T16:43:41.924Z,6.20
2023-02-12T16:46:09.394Z,6.10
2023-02-12T16:48:40.127Z,6.10
2023-02-12T16:51:30.312Z,6.10
2023-02-12T16:54:03.856Z,6.10
2023-02-12T16:56:38.502Z,6.00
2023-02-12T16:59:05.817Z,5.90
2023-02-12T17:01:36.329Z,5.80
2023-02-12T17:04:14.021Z,5.80
2023-02-12T17:06:41.205Z,5.70
2023-02-12T17:09:10.130Z,5.70
2023-02-12T17:11:37.442Z,5.60
2023-02-12T17:14:04.621Z,5.50
2023-02-12T17:16:32.536Z,5.50
2023-02-12T17:19:00.602Z,5.40
2023-02-12T17:21:31.297Z,5.40
2023-02-12T17:23:59.621Z,5.30
2023-02-12T17:26:26.864Z,5.30
2023-02-12T17:28:54.086Z,5.30
2023-02-12T17:31:21.365Z,5.20
2023-02-12T17:33:48.653Z,5.20
2023-02-12T17:36:15.909Z,5.20
2023-02-12T17:38:43.101Z,5.20
2023-02-12T17:41:10.947Z,5.10
2023-02-12T17:43:38.146Z,5.10
2023-02-12T17:46:13.978Z,5.00
2023-02-12T17:48:41.235Z,5.00
2023-02-12T17:51:11.399Z,5.00
2023-02-12T17:53:39.911Z,5.00
2023-02-12T17:56:19.079Z,4.90
2023-02-12T17:58:47.300Z,4.90
2023-02-12T18:01:16.849Z,4.90
2023-02-12T18:03:44.107Z,4.80
2023-02-12T18:06:14.097Z,4.80
2023-02-12T18:08:42.403Z,4.80
2023-02-12T18:11:11.317Z,4.70
2023-02-12T18:13:39.368Z,4.70
2023-02-12T18:16:08.159Z,4.60
2023-02-12T18:18:36.233Z,4.60
2023-02-12T18:21:11.919Z,4.50
2023-02-12T18:23:39.653Z,4.50
2023-02-12T18:26:16.215Z,4.40
2023-02-12T18:28:44.244Z,4.30
2023-02-12T18:31:12.366Z,4.20
2023-02-12T18:33:39.930Z,4.20
2023-02-12T18:36:13.782Z,4.10
2023-02-12T18:38:42.168Z,4.10
2023-02-12T18:41:12.337Z,4.00
2023-02-12T18:43:39.967Z,4.00
2023-02-12T18:46:09.558Z,4.00
2023-02-12T18:48:37.128Z,4.00
2023-02-12T18:51:06.074Z,3.90
2023-02-12T18:53:33.961Z,3.90
2023-02-12T18:56:05.173Z,3.90
2023-02-12T18:58:32.587Z,3.80
2023-02-12T19:01:00.282Z,3.80
2023-02-12T19:03:27.853Z,3.80
2023-02-12T19:06:03.817Z,3.80
2023-02-12T19:08:31.339Z,3.70
2023-02-12T19:10:58.829Z,3.70
2023-02-12T19:13:26.220Z,3.70
2023-02-12T19:15:53.529Z,3.70
2023-02-12T19:18:20.728Z,3.70
2023-02-12T19:20:47.906Z,3.70
2023-02-12T19:23:15.135Z,3.60
2023-02-12T19:25:45.573Z,3.60
2023-02-12T19:28:12.990Z,3.60
2023-02-12T19:30:41.133Z,3.50
2023-02-12T19:33:08.966Z,3.50
2023-02-12T19:35:36.101Z,3.40
2023-02-12T19:38:03.318Z,3.40
2023-02-12T19:40:31.063Z,3.40
2023-02-12T19:42:58.227Z,3.30
2023-02-12T19:45:25.408Z,3.30
2023-02-12T19:47:52.640Z,3.30
2023-02-12T19:50:19.913Z,3.30
2023-02-12T19:52:47.120Z,3.30
2023-02-12T19:55:14.439Z,3.20
2023-02-12T19:57:41.868Z,3.20
2023-02-12T20:00:09.762Z,3.10
2023-02-12T20:02:36.992Z,3.10
2023-02-12T20:05:04.305Z,3.10
2023-02-12T20:07:31.655Z,3.00
2023-02-12T20:09:58.818Z,3.00
2023-02-12T20:12:26.111Z,3.00
2023-02-12T20:14:55.598Z,2.90
2023-02-12T20:17:22.798Z,2.90
2023-02-12T20:19:50.032Z,2.80
2023-02-12T20:22:17.249Z,2.80
2023-02-12T20:24:44.498Z,2.80
2023-02-12T20:27:12.858Z,2.80
2023-02-12T20:29:40.445Z,2.80
2023-02-12T20:32:07.729Z,2.80
2023-02-12T20:34:49.915Z,2.80
2023-02-12T20:37:18.756Z,2.70
2023-02-12T20:39:46.015Z,2.90
2023-02-12T20:42:13.218Z,3.00
2023-02-12T20:44:40.398Z,3.00
2023-02-12T20:47:07.721Z,3.00
2023-02-12T20:49:35.645Z,3.00
2023-02-12T20:52:02.836Z,2.90
2023-02-12T20:54:30.004Z,2.80
2023-02-12T20:56:57.180Z,2.80
2023-02-12T20:59:24.448Z,2.80
2023-02-12T21:01:51.827Z,2.80
2023-02-12T21:04:19.739Z,2.80
2023-02-12T21:06:48.234Z,2.90
2023-02-12T21:09:15.432Z,2.90
2023-02-12T21:11:45.446Z,2.90
2023-02-12T21:14:23.472Z,2.80
2023-02-12T21:16:53.950Z,2.70
2023-02-12T21:19:22.045Z,2.60
2023-02-12T21:21:49.396Z,2.60
2023-02-12T21:24:21.455Z,2.60
2023-02-12T21:26:49.402Z,2.60
2023-02-12T21:29:16.835Z,2.60
2023-02-12T21:31:46.501Z,2.60
2023-02-12T21:34:20.892Z,2.60
2023-02-12T21:36:49.738Z,2.50
2023-02-12T21:39:24.513Z,2.60
2023-02-12T21:41:54.300Z,2.60
2023-02-12T21:44:23.385Z,2.60
2023-02-12T21:46:50.661Z,2.60
2023-02-12T21:49:24.637Z,2.60
2023-02-12T21:52:01.827Z,2.60
2023-02-12T21:54:29.857Z,2.60
2023-02-12T21:56:58.447Z,2.60
2023-02-12T21:59:28.558Z,2.70
2023-02-12T22:01:58.525Z,2.70
2023-02-12T22:04:26.251Z,2.60
2023-02-12T22:06:53.952Z,2.60
2023-02-12T22:09:22.716Z,2.50
2023-02-12T22:11:52.293Z,2.50
2023-02-12T22:14:21.074Z,2.50
2023-02-12T22:16:48.447Z,2.50
2023-02-12T22:19:15.690Z,2.40
2023-02-12T22:21:44.189Z,2.40
2023-02-12T22:24:15.007Z,2.30
2023-02-12T22:26:43.221Z,2.30
2023-02-12T22:29:12.753Z,2.40
2023-02-12T22:31:41.039Z,2.40
2023-02-12T22:34:12.867Z,2.30
2023-02-12T22:36:41.070Z,2.30
2023-02-12T22:39:10.097Z,2.30
2023-02-12T22:41:37.850Z,2.30
2023-02-12T22:44:05.330Z,2.30
2023-02-12T22:46:33.256Z,2.30
2023-02-12T22:49:00.523Z,2.30
2023-02-12T22:51:31.070Z,2.30
2023-02-12T22:53:59.230Z,2.20
2023-02-12T22:56:27.218Z,2.20
2023-02-12T22:58:56.579Z,2.10
2023-02-12T23:01:24.486Z,2.10
2023-02-12T23:03:52.167Z,2.10
2023-02-12T23:06:22.042Z,2.10
2023-02-12T23:08:53.998Z,2.10
2023-02-12T23:11:21.937Z,2.10
2023-02-12T23:13:49.089Z,2.10
2023-02-12T23:16:16.926Z,2.10
2023-02-12T23:18:44.166Z,2.10
2023-02-12T23:21:11.334Z,2.20
2023-02-12T23:23:38.668Z,2.20
2023-02-12T23:26:05.998Z,2.30
2023-02-12T23:28:33.269Z,2.20
2023-02-12T23:31:01.113Z,2.30
2023-02-12T23:33:28.660Z,2.30
2023-02-12T23:35:55.994Z,2.30
2023-02-12T23:38:23.199Z,2.30
2023-02-12T23:40:50.346Z,2.30
2023-02-12T23:43:17.499Z,2.30
2023-02-12T23:45:45.107Z,2.40
2023-02-12T23:48:13.152Z,2.40
2023-02-12T23:50:41.027Z,2.40
2023-02-12T23:53:10.010Z,2.40
2023-02-12T23:55:38.005Z,2.40
2023-02-12T23:58:06.752Z,2.40
